Time;durP1;ratioP1;P1;durP2;ratioP2;P2;SDS_P1;SDS_P2;PMS_P1;PMS_P2;Temp;Humidity;BMP_temperature;BMP_pressure;BME280_temperature;BME280_humidity;BME280_pressure;Samples;Min_cycle;Max_cycle;Signal;HPM_P1;HPM_P2
2023/08/08 00:00:18;;;;;;;6.53;4.10;;;13.60;99.90;;;;;;5012847;28;20462;-81
2023/08/08 00:02:44;;;;;;;7.07;4.55;;;13.60;99.90;;;;;;5026811;28;20045;-81
2023/08/08 00:05:09;;;;;;;7.97;4.35;;;13.60;99.90;;;;;;5023367;28;20045;-81
2023/08/08 00:07:35;;;;;;;7.90;4.25;;;13.70;99.90;;;;;;5013232;28;20045;-81
2023/08/08 00:10:01;;;;;;;7.65;4.45;;;13.60;99.90;;;;;;5026051;28;20045;-82
2023/08/08 00:12:26;;;;;;;7.40;4.22;;;13.60;99.90;;;;;;5012717;28;20052;-82
2023/08/08 00:14:52;;;;;;;8.80;4.43;;;13.70;99.90;;;;;;5029190;28;20059;-81
2023/08/08 00:17:18;;;;;;;6.60;4.47;;;13.70;99.90;;;;;;5030958;28;20076;-81
2023/08/08 00:20:18;;;;;;;8.75;4.68;;;13.70;99.90;;;;;;5037851;22;20496;-77
2023/08/08 00:22:46;;;;;;;13.50;5.45;;;13.70;99.90;;;;;;4982955;28;20072;-77
2023/08/08 00:25:17;;;;;;;10.80;4.93;;;13.70;99.90;;;;;;5023663;28;20045;-77
2023/08/08 00:31:22;;;;;;;9.40;4.85;;;13.80;99.90;;;;;;4992395;28;20045;-78
2023/08/08 00:33:50;;;;;;;11.77;4.68;;;13.80;99.90;;;;;;4978387;28;20038;-77
2023/08/08 00:36:24;;;;;;;8.07;4.43;;;13.80;99.90;;;;;;5008937;28;20100;-77
2023/08/08 00:38:55;;;;;;;7.30;4.82;;;13.90;99.90;;;;;;4982417;28;20136;-78
2023/08/08 00:45:34;;;;;;;8.32;5.25;;;13.70;99.90;;;;;;5010388;28;20284;-77
2023/08/08 00:51:17;;;;;;;9.13;4.55;;;13.90;99.90;;;;;;5031298;22;20466;-64
2023/08/08 00:53:44;;;;;;;10.23;4.70;;;13.90;99.90;;;;;;5031086;28;20423;-64
2023/08/08 00:56:11;;;;;;;10.55;4.70;;;13.90;99.90;;;;;;5018237;28;20084;-64
2023/08/08 00:58:38;;;;;;;7.60;4.53;;;13.90;99.90;;;;;;5029471;28;20521;-65
2023/08/08 01:01:03;;;;;;;8.98;5.22;;;13.90;99.90;;;;;;5010807;28;20046;-65
2023/08/08 01:03:29;;;;;;;9.95;5.50;;;13.90;99.90;;;;;;5027427;28;20053;-65
2023/08/08 01:06:24;;;;;;;9.07;5.13;;;13.90;99.90;;;;;;5027302;28;20037;-64
2023/08/08 01:09:00;;;;;;;12.27;5.60;;;13.90;99.90;;;;;;5009659;28;20081;-65
2023/08/08 01:11:29;;;;;;;7.80;5.10;;;13.90;99.90;;;;;;5025957;28;20484;-65
2023/08/08 01:13:55;;;;;;;11.70;5.40;;;13.90;99.90;;;;;;5022236;28;20483;-65
2023/08/08 01:16:22;;;;;;;8.40;4.82;;;13.90;99.90;;;;;;5029788;28;20049;-65
2023/08/08 01:18:49;;;;;;;8.80;5.18;;;14.00;99.90;;;;;;5030404;28;20044;-65
2023/08/08 01:21:16;;;;;;;8.88;5.10;;;14.00;99.90;;;;;;5028595;28;20471;-65
2023/08/08 01:23:52;;;;;;;7.88;4.85;;;14.00;99.90;;;;;;5031223;28;20063;-65
2023/08/08 01:26:20;;;;;;;12.70;5.38;;;14.00;99.90;;;;;;5013764;28;20045;-65
2023/08/08 01:28:46;;;;;;;10.15;5.22;;;14.00;99.90;;;;;;5023149;28;20045;-65
2023/08/08 01:31:11;;;;;;;11.95;5.57;;;14.00;99.90;;;;;;5023553;28;20551;-65
2023/08/08 01:33:37;;;;;;;11.38;5.50;;;14.00;99.90;;;;;;5019495;28;20046;-62
2023/08/08 01:36:13;;;;;;;13.07;5.38;;;14.10;99.90;;;;;;5029870;28;20033;-65
2023/08/08 01:38:42;;;;;;;9.52;5.28;;;14.00;99.90;;;;;;5026155;28;20034;-65
2023/08/08 01:41:08;;;;;;;12.18;5.82;;;14.00;99.90;;;;;;5028921;28;20084;-64
2023/08/08 01:43:36;;;;;;;9.68;5.97;;;14.00;99.90;;;;;;5037927;28;20510;-65
2023/08/08 01:46:03;;;;;;;12.98;6.07;;;14.10;99.90;;;;;;5012871;28;20064;-65
2023/08/08 01:48:29;;;;;;;10.95;5.60;;;14.10;99.90;;;;;;5030366;28;20368;-65
2023/08/08 01:50:55;;;;;;;13.52;5.80;;;14.10;99.90;;;;;;5009778;28;20040;-62
2023/08/08 01:53:21;;;;;;;13.82;5.60;;;14.10;99.90;;;;;;5031173;28;20037;-65
2023/08/08 01:55:46;;;;;;;12.57;5.80;;;14.10;99.90;;;;;;5036006;28;20048;-65
2023/08/08 01:58:12;;;;;;;11.52;5.88;;;14.10;99.90;;;;;;5016827;28;20140;-64
2023/08/08 02:00:37;;;;;;;14.00;6.20;;;14.10;99.90;;;;;;5016112;28;20087;-65
2023/08/08 02:03:04;;;;;;;15.20;6.40;;;14.10;99.90;;;;;;5032063;28;20115;-65
2023/08/08 02:05:29;;;;;;;13.20;6.03;;;14.20;99.90;;;;;;5013344;28;20092;-65
2023/08/08 02:07:55;;;;;;;14.68;5.60;;;14.20;99.90;;;;;;5010740;28;20427;-65
2023/08/08 02:10:21;;;;;;;15.57;6.15;;;14.20;99.90;;;;;;5013836;28;20069;-65
2023/08/08 02:12:46;;;;;;;12.50;6.18;;;14.20;99.90;;;;;;5026027;28;20094;-65
2023/08/08 02:15:12;;;;;;;18.75;7.03;;;14.20;99.90;;;;;;5031818;28;20044;-65
2023/08/08 02:17:38;;;;;;;14.07;6.30;;;14.20;99.90;;;;;;5024977;28;20049;-65
2023/08/08 02:20:06;;;;;;;11.93;6.40;;;14.20;99.90;;;;;;5032221;28;20314;-65
2023/08/08 02:22:32;;;;;;;17.00;6.63;;;14.20;99.90;;;;;;5027902;28;20037;-65
2023/08/08 02:24:57;;;;;;;14.57;6.35;;;14.20;99.90;;;;;;5034022;28;20128;-65
2023/08/08 02:27:23;;;;;;;10.73;6.63;;;14.20;99.90;;;;;;5014130;28;20116;-65
2023/08/08 02:29:48;;;;;;;16.38;6.32;;;14.20;99.90;;;;;;5032380;28;20037;-63
2023/08/08 02:32:14;;;;;;;14.77;7.20;;;14.20;99.90;;;;;;5032834;28;20410;-65
2023/08/08 02:34:40;;;;;;;15.15;6.65;;;14.20;99.90;;;;;;5038465;28;20399;-65
2023/08/08 02:37:06;;;;;;;18.65;7.70;;;14.20;99.90;;;;;;5031263;28;20479;-65
2023/08/08 02:39:31;;;;;;;13.18;6.40;;;14.20;99.90;;;;;;5020431;28;20041;-65
2023/08/08 02:41:57;;;;;;;18.15;7.22;;;14.20;99.90;;;;;;5017673;28;20510;-65
2023/08/08 02:44:22;;;;;;;14.25;6.82;;;14.20;99.90;;;;;;5031103;28;20150;-65
2023/08/08 02:46:48;;;;;;;15.85;7.10;;;14.20;99.90;;;;;;5037453;28;20033;-65
2023/08/08 02:49:14;;;;;;;14.18;7.03;;;14.20;99.90;;;;;;5035718;28;20033;-65
2023/08/08 02:51:40;;;;;;;13.60;7.03;;;14.20;99.90;;;;;;5014161;28;20045;-65
2023/08/08 02:54:05;;;;;;;17.33;7.20;;;14.20;99.90;;;;;;5024463;28;20546;-63
2023/08/08 02:56:31;;;;;;;12.13;6.25;;;14.20;99.90;;;;;;5022401;28;20503;-65
2023/08/08 02:58:58;;;;;;;14.98;6.45;;;14.20;99.90;;;;;;5013883;28;20104;-65
2023/08/08 03:01:23;;;;;;;17.63;6.65;;;14.20;99.90;;;;;;5031992;28;20029;-62
2023/08/08 03:03:49;;;;;;;16.73;6.47;;;14.10;99.90;;;;;;5030064;28;20038;-65
2023/08/08 03:06:15;;;;;;;13.60;6.45;;;14.10;99.90;;;;;;5029077;28;20037;-65
2023/08/08 03:08:41;;;;;;;9.93;6.53;;;14.10;99.90;;;;;;5036385;28;20124;-64
2023/08/08 03:11:06;;;;;;;12.60;6.10;;;14.10;99.90;;;;;;5012418;28;20038;-65
2023/08/08 03:13:32;;;;;;;11.05;5.93;;;14.00;99.90;;;;;;5019614;28;20414;-64
2023/08/08 03:15:58;;;;;;;14.18;6.35;;;14.00;99.90;;;;;;5013381;28;20439;-65
2023/08/08 03:18:25;;;;;;;12.15;5.88;;;14.00;99.90;;;;;;5036863;28;20061;-65
2023/08/08 03:20:51;;;;;;;10.30;5.65;;;14.00;99.90;;;;;;5031543;28;20045;-65
2023/08/08 03:23:17;;;;;;;13.50;5.80;;;14.00;99.90;;;;;;5017059;28;20033;-65
2023/08/08 03:25:43;;;;;;;12.35;5.10;;;13.90;99.90;;;;;;5034976;28;20492;-65
2023/08/08 03:28:08;;;;;;;12.25;5.30;;;13.90;99.90;;;;;;5012491;28;20045;-65
2023/08/08 03:30:37;;;;;;;13.85;4.90;;;13.90;99.90;;;;;;5023097;28;20403;-65
2023/08/08 03:33:02;;;;;;;12.90;5.82;;;13.90;99.90;;;;;;5029620;28;20045;-64
2023/08/08 03:35:28;;;;;;;9.73;5.10;;;13.90;99.90;;;;;;5027436;28;20403;-65
2023/08/08 03:37:54;;;;;;;12.38;4.55;;;13.90;99.90;;;;;;5033501;28;20080;-65
2023/08/08 03:40:19;;;;;;;11.05;4.53;;;13.90;99.90;;;;;;5015591;28;20045;-64
2023/08/08 03:42:45;;;;;;;9.20;4.47;;;13.90;99.90;;;;;;5028471;28;20052;-65
2023/08/08 03:45:11;;;;;;;9.55;4.25;;;13.80;99.90;;;;;;5028790;28;20042;-64
2023/08/08 03:47:36;;;;;;;13.40;4.35;;;13.80;99.90;;;;;;5029644;28;20435;-65
2023/08/08 03:50:04;;;;;;;12.65;4.13;;;13.80;99.90;;;;;;5036708;28;20043;-66
2023/08/08 03:52:30;;;;;;;9.10;3.75;;;13.80;99.90;;;;;;5042574;28;20396;-67
2023/08/08 03:54:55;;;;;;;9.88;4.10;;;13.80;99.90;;;;;;4995343;28;20029;-66
2023/08/08 03:57:21;;;;;;;10.73;4.05;;;13.80;99.90;;;;;;5019471;28;20095;-65
2023/08/08 03:59:47;;;;;;;10.50;4.35;;;13.70;99.90;;;;;;5029422;28;20511;-67
2023/08/08 04:02:13;;;;;;;10.02;3.88;;;13.70;99.90;;;;;;5028060;28;20041;-66
2023/08/08 04:04:39;;;;;;;10.13;3.65;;;13.80;99.90;;;;;;5023039;28;20113;-66
2023/08/08 04:07:04;;;;;;;12.60;4.07;;;13.80;99.90;;;;;;5021978;28;20117;-66
2023/08/08 04:09:30;;;;;;;8.52;3.50;;;13.70;99.90;;;;;;5026982;28;20041;-66
2023/08/08 04:11:56;;;;;;;6.50;3.50;;;13.70;99.90;;;;;;5011363;28;20099;-66
2023/08/08 04:14:22;;;;;;;14.73;3.80;;;13.70;99.90;;;;;;5022092;28;20041;-66
2023/08/08 04:16:47;;;;;;;13.48;3.72;;;13.70;99.90;;;;;;5027527;28;20088;-65
2023/08/08 04:19:13;;;;;;;14.73;4.03;;;13.70;99.90;;;;;;5026995;28;20521;-67
2023/08/08 04:21:39;;;;;;;9.02;3.55;;;13.60;99.90;;;;;;5012135;28;20037;-66
2023/08/08 04:24:07;;;;;;;10.20;3.10;;;13.60;99.90;;;;;;5029999;28;20040;-67
2023/08/08 04:26:33;;;;;;;9.10;3.35;;;13.60;99.90;;;;;;5025045;28;20046;-66
2023/08/08 04:28:59;;;;;;;8.18;3.13;;;13.60;99.90;;;;;;5033588;28;20479;-66
2023/08/08 04:31:25;;;;;;;8.75;3.00;;;13.60;99.90;;;;;;5030346;28;20061;-67
2023/08/08 04:33:52;;;;;;;5.78;2.78;;;13.60;99.90;;;;;;5029817;28;20042;-66
2023/08/08 04:36:17;;;;;;;8.60;2.92;;;13.60;99.90;;;;;;5027053;28;20124;-67
2023/08/08 04:38:43;;;;;;;7.65;2.90;;;13.60;99.90;;;;;;5027526;28;20120;-67
2023/08/08 04:41:09;;;;;;;10.90;2.85;;;13.50;99.90;;;;;;5035454;28;20033;-67
2023/08/08 04:43:34;;;;;;;7.20;2.22;;;13.50;99.90;;;;;;5033179;28;20463;-66
2023/08/08 04:46:00;;;;;;;12.02;3.00;;;13.50;99.90;;;;;;5012221;28;20091;-66
2023/08/08 04:48:26;;;;;;;9.02;2.47;;;13.50;99.90;;;;;;5030346;28;20391;-67
2023/08/08 04:50:51;;;;;;;6.28;2.63;;;13.50;99.90;;;;;;5022006;28;20412;-66
2023/08/08 04:53:17;;;;;;;6.28;2.30;;;13.50;99.90;;;;;;5031675;28;20526;-66
2023/08/08 04:55:43;;;;;;;7.10;2.00;;;13.50;99.90;;;;;;5004331;28;20551;-65
2023/08/08 04:58:08;;;;;;;5.28;2.40;;;13.50;99.90;;;;;;5007408;28;20306;-66
2023/08/08 05:00:35;;;;;;;8.23;2.38;;;13.40;99.90;;;;;;5026720;28;20496;-67
2023/08/08 05:03:01;;;;;;;8.15;2.53;;;13.50;99.90;;;;;;5030235;28;20164;-66
2023/08/08 05:05:27;;;;;;;13.77;3.15;;;13.50;99.90;;;;;;5031453;28;20056;-66
2023/08/08 05:07:52;;;;;;;10.55;2.70;;;13.50;99.90;;;;;;5009597;28;20045;-67
2023/08/08 05:10:18;;;;;;;9.60;2.25;;;13.50;99.90;;;;;;5031926;28;20038;-66
2023/08/08 05:12:43;;;;;;;12.93;2.40;;;13.50;99.90;;;;;;5021513;28;20057;-67
2023/08/08 05:15:09;;;;;;;4.72;2.10;;;13.50;99.90;;;;;;5035275;28;20095;-65
2023/08/08 05:17:35;;;;;;;10.50;2.35;;;13.50;99.90;;;;;;5014493;28;20396;-67
2023/08/08 05:20:01;;;;;;;5.78;2.05;;;13.50;99.90;;;;;;5033467;28;20041;-66
2023/08/08 05:22:26;;;;;;;8.27;2.20;;;13.50;99.90;;;;;;5031785;28;20116;-66
2023/08/08 05:24:52;;;;;;;8.57;2.40;;;13.60;99.90;;;;;;5031405;28;20132;-66
2023/08/08 05:27:17;;;;;;;9.13;1.98;;;13.60;99.90;;;;;;5031855;28;20530;-64
2023/08/08 05:29:43;;;;;;;7.32;2.50;;;13.60;99.90;;;;;;5011789;28;20041;-67
2023/08/08 05:32:08;;;;;;;9.95;1.95;;;13.70;99.90;;;;;;5033824;28;20037;-66
2023/08/08 05:34:37;;;;;;;9.07;2.22;;;13.70;99.90;;;;;;5029770;28;20057;-67
2023/08/08 05:37:03;;;;;;;7.13;1.85;;;13.50;99.90;;;;;;5032208;28;20033;-66
2023/08/08 05:39:30;;;;;;;5.68;1.88;;;13.80;99.90;;;;;;5028912;28;20495;-67
2023/08/08 05:41:56;;;;;;;8.63;2.00;;;13.80;99.90;;;;;;5028191;28;20044;-66
2023/08/08 05:44:22;;;;;;;6.38;2.00;;;13.80;99.90;;;;;;5030348;28;20029;-64
2023/08/08 05:46:47;;;;;;;6.70;2.30;;;13.80;99.90;;;;;;5028200;28;20041;-67
2023/08/08 05:49:13;;;;;;;10.88;2.10;;;13.80;99.90;;;;;;5032459;28;20109;-66
2023/08/08 05:51:40;;;;;;;8.50;1.77;;;13.80;99.90;;;;;;5012850;28;20042;-66
2023/08/08 05:54:06;;;;;;;4.22;1.63;;;13.80;99.90;;;;;;5031248;28;20045;-66
2023/08/08 05:56:36;;;;;;;7.13;1.88;;;13.80;99.90;;;;;;5035111;28;20052;-67
2023/08/08 05:59:02;;;;;;;7.43;1.80;;;13.80;99.90;;;;;;5033449;28;20037;-66
2023/08/08 06:01:28;;;;;;;6.60;1.95;;;13.70;99.90;;;;;;5032930;28;20040;-66
2023/08/08 06:03:53;;;;;;;8.25;1.73;;;13.80;99.90;;;;;;5023235;28;20049;-67
2023/08/08 06:06:19;;;;;;;6.78;2.03;;;13.80;99.90;;;;;;5029494;28;20053;-66
2023/08/08 06:08:45;;;;;;;5.35;1.77;;;13.90;99.90;;;;;;5038167;28;20042;-65
2023/08/08 06:11:10;;;;;;;10.85;2.28;;;13.80;99.90;;;;;;5027830;28;20120;-67
2023/08/08 06:13:36;;;;;;;6.05;1.70;;;13.90;99.90;;;;;;5028096;28;20042;-66
2023/08/08 06:16:06;;;;;;;9.43;2.03;;;14.00;99.90;;;;;;5029881;28;20042;-66
2023/08/08 06:18:32;;;;;;;6.22;2.00;;;14.10;99.90;;;;;;5028303;28;20038;-67
2023/08/08 06:20:58;;;;;;;7.32;2.05;;;14.10;99.90;;;;;;5052713;22;20041;-64
2023/08/08 06:23:24;;;;;;;6.60;1.67;;;14.20;99.90;;;;;;5044942;28;20043;-64
2023/08/08 06:25:49;;;;;;;11.63;2.60;;;14.30;99.90;;;;;;5031274;28;20542;-64
2023/08/08 06:28:15;;;;;;;5.57;1.77;;;14.40;99.90;;;;;;5029467;28;20034;-63
2023/08/08 06:30:41;;;;;;;5.43;1.80;;;14.40;99.90;;;;;;5022358;28;20128;-65
2023/08/08 06:33:06;;;;;;;10.80;2.00;;;14.50;99.90;;;;;;5025358;28;20048;-64
2023/08/08 06:35:32;;;;;;;6.43;1.65;;;14.60;99.90;;;;;;5031330;28;20467;-64
2023/08/08 06:37:58;;;;;;;4.13;1.60;;;14.60;99.90;;;;;;5033094;28;20033;-64
2023/08/08 06:40:23;;;;;;;7.45;1.88;;;14.70;99.90;;;;;;5037008;28;20086;-64
2023/08/08 06:42:49;;;;;;;6.13;1.85;;;14.70;99.90;;;;;;5026058;28;20095;-64
2023/08/08 06:45:15;;;;;;;6.57;1.77;;;14.80;99.90;;;;;;5040322;28;20029;-65
2023/08/08 06:47:41;;;;;;;12.07;2.58;;;14.80;99.90;;;;;;5026273;28;20049;-65
2023/08/08 06:50:07;;;;;;;9.63;1.88;;;14.90;99.90;;;;;;5032679;28;20137;-65
2023/08/08 06:52:33;;;;;;;5.47;1.70;;;14.90;99.90;;;;;;5010123;28;20170;-64
2023/08/08 06:54:59;;;;;;;5.40;2.03;;;14.90;99.90;;;;;;5042297;28;20486;-64
2023/08/08 06:57:24;;;;;;;5.40;1.73;;;15.00;99.90;;;;;;5045136;28;20047;-64
2023/08/08 06:59:52;;;;;;;8.38;1.58;;;15.00;99.90;;;;;;5048621;28;20033;-64
2023/08/08 07:02:20;;;;;;;7.95;1.83;;;15.10;99.90;;;;;;5034191;28;20598;-65
2023/08/08 07:04:46;;;;;;;6.53;1.50;;;15.10;99.90;;;;;;5026843;28;20113;-65
2023/08/08 07:07:11;;;;;;;8.35;1.80;;;15.10;99.90;;;;;;5026601;28;20042;-65
2023/08/08 07:09:37;;;;;;;6.18;1.42;;;15.10;99.90;;;;;;5028719;28;20038;-64
2023/08/08 07:12:04;;;;;;;12.82;1.60;;;15.20;99.90;;;;;;5006293;28;20048;-65
2023/08/08 07:14:30;;;;;;;4.32;1.73;;;15.30;99.90;;;;;;5029707;28;20108;-64
2023/08/08 07:16:55;;;;;;;5.30;1.77;;;15.30;99.90;;;;;;5029895;28;20128;-64
2023/08/08 07:19:21;;;;;;;7.78;1.70;;;15.30;99.90;;;;;;5022936;28;20068;-65
2023/08/08 07:21:47;;;;;;;6.40;1.60;;;15.30;99.90;;;;;;5026166;28;20037;-64
2023/08/08 07:24:13;;;;;;;6.78;1.42;;;15.40;99.90;;;;;;5017384;28;20088;-64
2023/08/08 07:26:39;;;;;;;5.90;1.30;;;15.40;99.90;;;;;;5029827;28;20033;-65
2023/08/08 07:29:07;;;;;;;6.28;1.30;;;15.50;99.90;;;;;;5011633;28;20243;-65
2023/08/08 07:31:33;;;;;;;5.82;1.60;;;15.50;99.90;;;;;;5008798;28;20508;-66
2023/08/08 07:33:59;;;;;;;5.97;1.60;;;15.60;99.90;;;;;;5023737;28;20076;-64
2023/08/08 07:36:25;;;;;;;6.78;1.67;;;15.70;99.90;;;;;;5009939;28;20037;-66
2023/08/08 07:38:50;;;;;;;6.90;1.40;;;15.70;99.90;;;;;;5042841;28;20040;-66
2023/08/08 07:41:17;;;;;;;8.73;2.20;;;15.80;99.90;;;;;;5034407;28;20108;-66
2023/08/08 07:43:43;;;;;;;7.13;1.67;;;15.90;99.90;;;;;;5028755;28;20330;-66
2023/08/08 07:46:09;;;;;;;5.40;1.55;;;16.10;99.90;;;;;;5024633;28;20598;-65
2023/08/08 07:48:35;;;;;;;6.03;1.58;;;16.30;99.90;;;;;;5014934;28;20097;-65
2023/08/08 07:51:00;;;;;;;9.60;1.40;;;16.50;99.90;;;;;;5019073;28;20402;-66
2023/08/08 07:53:26;;;;;;;9.75;1.48;;;16.60;99.90;;;;;;5017896;28;20085;-65
2023/08/08 07:55:52;;;;;;;6.15;2.25;;;16.70;99.90;;;;;;5028253;28;20041;-65
2023/08/08 07:58:17;;;;;;;2.85;1.25;;;16.70;99.90;;;;;;5016771;28;20072;-66
2023/08/08 08:00:44;;;;;;;5.40;1.40;;;16.70;99.90;;;;;;5025941;28;20050;-66
2023/08/08 08:03:10;;;;;;;3.60;1.48;;;16.80;99.90;;;;;;5023171;28;20492;-66
2023/08/08 08:05:37;;;;;;;5.30;1.55;;;16.80;99.90;;;;;;5025773;28;20081;-66
2023/08/08 08:08:03;;;;;;;5.40;1.60;;;16.80;99.90;;;;;;5045147;28;20033;-65
2023/08/08 08:10:29;;;;;;;6.05;1.70;;;16.80;99.90;;;;;;5023186;28;20036;-66
2023/08/08 08:12:57;;;;;;;5.15;1.58;;;16.80;99.90;;;;;;5046212;28;20036;-66
2023/08/08 08:15:27;;;;;;;4.18;1.65;;;16.80;99.90;;;;;;5024045;28;20041;-66
2023/08/08 08:17:52;;;;;;;5.82;1.63;;;16.80;99.90;;;;;;5046826;28;20041;-65
2023/08/08 08:20:18;;;;;;;5.32;1.50;;;16.90;99.90;;;;;;5043668;28;20045;-66
2023/08/08 08:22:44;;;;;;;3.63;1.33;;;17.00;99.90;;;;;;5021820;28;20124;-66
2023/08/08 08:25:10;;;;;;;7.35;1.20;;;17.00;99.90;;;;;;5035607;28;20037;-66
2023/08/08 08:27:37;;;;;;;3.40;1.10;;;17.20;99.90;;;;;;5041942;28;20292;-66
2023/08/08 08:30:04;;;;;;;4.35;1.77;;;17.30;99.90;;;;;;5045807;28;20483;-65
2023/08/08 08:32:34;;;;;;;5.75;1.48;;;17.40;99.90;;;;;;5042473;28;20033;-66
2023/08/08 08:35:02;;;;;;;3.47;1.45;;;17.40;99.90;;;;;;5046486;28;20040;-64
2023/08/08 08:37:28;;;;;;;7.00;1.73;;;17.50;99.90;;;;;;5039428;28;20050;-66
2023/08/08 08:39:53;;;;;;;6.00;1.60;;;17.40;99.90;;;;;;5035846;28;20064;-66
2023/08/08 08:42:19;;;;;;;2.63;1.70;;;17.40;99.90;;;;;;5041985;28;20168;-66
2023/08/08 08:44:46;;;;;;;7.03;1.40;;;17.50;99.90;;;;;;5042427;28;20039;-64
2023/08/08 08:47:13;;;;;;;4.72;1.40;;;17.50;99.90;;;;;;5045336;28;20060;-66
2023/08/08 08:49:40;;;;;;;4.43;1.42;;;17.50;99.90;;;;;;5042315;28;20040;-66
2023/08/08 08:52:06;;;;;;;4.13;1.35;;;17.60;99.90;;;;;;5046701;28;20045;-66
2023/08/08 08:54:32;;;;;;;3.70;1.00;;;17.60;99.90;;;;;;5036283;28;20522;-66
2023/08/08 08:56:58;;;;;;;4.70;1.48;;;17.60;99.90;;;;;;5016817;28;20045;-66
2023/08/08 08:59:25;;;;;;;3.60;1.30;;;17.60;99.90;;;;;;5048512;28;20498;-66
2023/08/08 09:01:51;;;;;;;5.47;1.67;;;17.60;99.90;;;;;;5041368;28;20068;-66
2023/08/08 09:04:20;;;;;;;7.55;1.38;;;17.50;99.90;;;;;;5048277;28;20040;-66
2023/08/08 09:06:47;;;;;;;3.88;1.40;;;17.50;99.90;;;;;;5034969;28;20178;-66
2023/08/08 09:09:15;;;;;;;8.20;1.67;;;17.50;99.90;;;;;;5040285;28;20068;-66
2023/08/08 09:11:42;;;;;;;6.15;1.30;;;17.50;99.90;;;;;;5045802;28;20037;-66
2023/08/08 09:14:18;;;;;;;3.95;1.27;;;17.50;99.90;;;;;;5036903;28;20048;-65
2023/08/08 09:16:46;;;;;;;3.65;1.60;;;17.60;99.90;;;;;;5029171;28;20049;-66
2023/08/08 09:19:13;;;;;;;4.22;1.23;;;17.60;99.90;;;;;;5023856;28;20064;-66
2023/08/08 09:21:38;;;;;;;9.20;1.77;;;17.60;99.90;;;;;;5031248;28;20045;-66
2023/08/08 09:24:04;;;;;;;3.97;1.45;;;17.60;99.90;;;;;;5038218;28;20533;-65
2023/08/08 09:26:30;;;;;;;5.95;1.58;;;17.60;99.90;;;;;;5032731;28;20029;-66
2023/08/08 09:28:56;;;;;;;6.18;1.50;;;17.50;99.90;;;;;;5043743;28;20123;-66
2023/08/08 09:31:25;;;;;;;4.75;1.40;;;17.50;99.90;;;;;;5024472;28;20120;-66
2023/08/08 09:33:51;;;;;;;5.65;1.27;;;17.40;99.90;;;;;;5028140;28;20068;-65
2023/08/08 09:36:19;;;;;;;4.72;1.40;;;17.30;99.90;;;;;;5042351;28;20044;-66
2023/08/08 09:38:45;;;;;;;4.55;1.40;;;17.30;99.90;;;;;;5025327;28;20550;-66
2023/08/08 09:41:11;;;;;;;6.00;1.50;;;17.50;99.90;;;;;;5024725;28;20095;-65
2023/08/08 09:43:37;;;;;;;3.83;1.33;;;17.80;99.90;;;;;;5041594;28;20435;-65
2023/08/08 09:46:03;;;;;;;3.38;1.25;;;18.20;99.90;;;;;;5023126;28;20033;-66
2023/08/08 09:48:31;;;;;;;5.35;1.35;;;18.60;99.90;;;;;;5024733;28;20540;-65
2023/08/08 09:51:01;;;;;;;6.28;1.33;;;18.60;99.90;;;;;;5027214;28;20083;-66
2023/08/08 09:53:28;;;;;;;4.40;1.35;;;18.50;99.90;;;;;;5041176;28;20044;-67
2023/08/08 09:55:55;;;;;;;4.80;1.52;;;18.10;99.90;;;;;;5045284;28;20060;-67
2023/08/08 09:58:21;;;;;;;3.08;1.35;;;17.80;99.90;;;;;;5040981;28;20073;-67
2023/08/08 10:00:49;;;;;;;4.93;1.17;;;17.60;99.90;;;;;;5029187;28;20118;-67
2023/08/08 10:03:16;;;;;;;3.90;1.40;;;17.50;99.90;;;;;;5026733;28;20342;-67
2023/08/08 10:05:43;;;;;;;5.05;1.30;;;17.30;99.90;;;;;;5049971;28;20111;-67
2023/08/08 10:08:09;;;;;;;7.13;1.40;;;17.20;99.90;;;;;;5028793;28;20048;-67
2023/08/08 10:10:36;;;;;;;5.28;1.60;;;17.30;99.90;;;;;;5042984;28;20029;-66
2023/08/08 10:13:02;;;;;;;5.90;1.38;;;17.40;99.90;;;;;;5030702;28;20405;-66
2023/08/08 10:15:28;;;;;;;3.88;1.40;;;17.70;99.90;;;;;;5044505;28;20028;-66
2023/08/08 10:17:57;;;;;;;3.05;1.33;;;17.80;99.90;;;;;;5049242;28;20067;-66
2023/08/08 10:20:26;;;;;;;2.83;1.33;;;17.80;99.90;;;;;;5045844;28;20071;-66
2023/08/08 10:22:54;;;;;;;3.45;1.42;;;17.60;99.90;;;;;;5032304;28;20442;-66
2023/08/08 10:25:26;;;;;;;4.97;1.60;;;17.60;99.90;;;;;;5037527;28;20049;-66
2023/08/08 10:28:05;;;;;;;;;;;17.80;99.90;;;;;;5033442;28;20084;-66
2023/08/08 10:30:46;;;;;;;5.93;1.70;;;18.00;99.90;;;;;;5021713;28;19953;-66
2023/08/08 10:33:41;;;;;;;5.95;1.88;;;17.90;99.90;;;;;;5049322;28;20507;-64
2023/08/08 10:36:08;;;;;;;4.78;1.40;;;17.60;99.90;;;;;;5035182;28;20069;-66
2023/08/08 10:38:43;;;;;;;2.22;1.30;;;17.40;99.90;;;;;;5052267;28;20434;-66
2023/08/08 10:41:11;;;;;;;5.25;1.73;;;17.20;99.90;;;;;;5025230;28;20129;-66
2023/08/08 10:43:37;;;;;;;5.95;1.67;;;17.10;99.90;;;;;;5036428;28;20051;-66
2023/08/08 10:46:04;;;;;;;5.35;1.92;;;17.10;99.90;;;;;;5046310;28;20112;-66
2023/08/08 10:48:30;;;;;;;5.47;1.50;;;17.40;99.90;;;;;;5045396;28;20035;-66
2023/08/08 10:50:59;;;;;;;4.55;1.40;;;17.70;99.90;;;;;;5048483;28;20479;-66
2023/08/08 10:53:30;;;;;;;6.70;1.80;;;17.80;99.90;;;;;;5045729;28;20124;-65
2023/08/08 10:55:58;;;;;;;5.15;1.65;;;17.70;99.90;;;;;;5029884;28;20070;-66
2023/08/08 10:58:36;;;;;;;7.70;1.75;;;17.80;99.90;;;;;;5039761;28;20036;-66
2023/08/08 11:01:05;;;;;;;5.00;1.65;;;18.10;99.90;;;;;;5007072;28;20427;-66
2023/08/08 11:03:31;;;;;;;3.83;1.50;;;18.30;99.90;;;;;;5031355;28;20579;-67
2023/08/08 11:05:57;;;;;;;8.18;1.50;;;18.30;99.90;;;;;;5029245;28;20033;-65
2023/08/08 11:08:23;;;;;;;5.80;1.40;;;18.10;99.90;;;;;;5032230;28;20037;-66
2023/08/08 11:10:52;;;;;;;2.95;1.40;;;17.80;99.90;;;;;;5034098;28;20381;-66
2023/08/08 11:13:19;;;;;;;4.60;1.60;;;17.50;99.90;;;;;;5022075;28;20045;-66
2023/08/08 11:15:45;;;;;;;6.55;1.67;;;17.40;99.90;;;;;;5028595;28;20052;-66
2023/08/08 11:18:11;;;;;;;4.65;1.42;;;17.30;99.90;;;;;;5032553;28;20046;-66
2023/08/08 11:20:36;;;;;;;6.07;1.70;;;17.30;99.90;;;;;;5044834;28;20091;-66
2023/08/08 11:23:10;;;;;;;5.03;1.50;;;17.40;99.90;;;;;;5019453;28;20077;-66
2023/08/08 11:25:36;;;;;;;5.78;1.55;;;17.60;99.90;;;;;;5036879;28;20048;-67
2023/08/08 11:28:03;;;;;;;7.88;2.17;;;18.00;99.90;;;;;;5040620;28;20045;-67
2023/08/08 11:30:33;;;;;;;5.13;1.60;;;18.30;99.90;;;;;;5039544;28;20049;-67
2023/08/08 11:33:00;;;;;;;5.85;1.67;;;18.40;99.90;;;;;;5041841;28;20115;-67
2023/08/08 11:35:27;;;;;;;7.43;1.83;;;18.30;99.90;;;;;;5032608;28;20455;-67
2023/08/08 11:37:54;;;;;;;3.03;1.60;;;17.90;99.90;;;;;;5027555;28;20042;-67
2023/08/08 11:40:23;;;;;;;5.55;1.38;;;17.60;99.90;;;;;;5042102;28;20041;-67
2023/08/08 11:42:51;;;;;;;3.30;1.33;;;17.30;99.90;;;;;;5011739;28;20121;-66
2023/08/08 11:45:17;;;;;;;4.57;1.58;;;17.00;99.90;;;;;;5014720;28;20083;-66
2023/08/08 11:47:42;;;;;;;3.28;1.52;;;16.80;99.90;;;;;;5025444;28;20054;-66
2023/08/08 11:50:10;;;;;;;14.93;2.72;;;16.70;99.90;;;;;;5014114;28;20033;-66
2023/08/08 11:52:41;;;;;;;6.43;1.98;;;16.90;99.90;;;;;;5023633;28;20045;-66
2023/08/08 11:55:11;;;;;;;7.25;1.83;;;17.20;99.90;;;;;;5041619;28;20092;-66
2023/08/08 11:57:38;;;;;;;6.03;1.90;;;17.50;99.90;;;;;;5034599;28;20111;-66
2023/08/08 12:00:08;;;;;;;4.30;1.85;;;17.60;99.90;;;;;;5020911;28;20037;-66
2023/08/08 12:02:35;;;;;;;6.32;2.30;;;17.80;99.90;;;;;;5026555;28;20037;-66
2023/08/08 12:05:11;;;;;;;5.88;1.58;;;17.80;99.90;;;;;;5035915;28;20037;-66
2023/08/08 12:07:41;;;;;;;5.68;1.98;;;17.90;99.90;;;;;;5024361;28;20044;-66
2023/08/08 12:10:17;;;;;;;3.90;1.83;;;17.90;99.90;;;;;;5033407;28;20029;-66
2023/08/08 12:12:44;;;;;;;6.20;2.15;;;17.80;99.90;;;;;;5037560;28;20037;-67
2023/08/08 12:15:10;;;;;;;6.28;2.00;;;17.80;99.90;;;;;;5015744;28;20483;-67
2023/08/08 12:17:37;;;;;;;6.25;2.05;;;17.90;99.90;;;;;;5007826;28;20515;-67
2023/08/08 12:22:40;;;;;;;2.38;1.40;;;18.30;99.90;;;;;;5048433;28;20480;-66
2023/08/08 12:25:08;;;;;;;4.15;1.60;;;18.40;99.90;;;;;;5046757;28;20045;-66
2023/08/08 12:27:34;;;;;;;4.43;1.63;;;18.60;99.90;;;;;;5041936;28;20041;-66
2023/08/08 12:29:59;;;;;;;3.85;1.63;;;18.90;99.90;;;;;;5046782;28;20547;-66
2023/08/08 12:32:28;;;;;;;6.95;1.63;;;19.10;99.90;;;;;;5032222;28;20082;-66
2023/08/08 12:34:54;;;;;;;4.25;1.67;;;19.00;99.90;;;;;;5050187;28;20045;-66
2023/08/08 12:37:20;;;;;;;6.20;1.60;;;18.80;99.90;;;;;;5035029;28;20410;-66
2023/08/08 12:39:45;;;;;;;5.35;1.55;;;18.60;99.90;;;;;;5050177;28;20033;-66
2023/08/08 12:42:11;;;;;;;6.85;1.70;;;18.30;99.90;;;;;;5031911;28;20053;-66
2023/08/08 12:44:37;;;;;;;3.35;1.33;;;18.10;99.90;;;;;;5038037;28;20052;-66
2023/08/08 12:47:03;;;;;;;2.47;1.40;;;17.90;99.90;;;;;;5049980;28;20028;-66
2023/08/08 12:49:28;;;;;;;2.67;1.13;;;17.80;99.90;;;;;;5052897;28;20032;-67
2023/08/08 12:51:55;;;;;;;4.28;1.33;;;17.90;99.90;;;;;;5050450;28;20087;-66
2023/08/08 12:54:21;;;;;;;3.13;1.40;;;18.20;99.90;;;;;;5018897;28;20506;-66
2023/08/08 12:56:48;;;;;;;4.93;1.85;;;18.30;99.90;;;;;;5044700;28;20041;-66